• Join FlightAware (Why Join?)
  • Login
  • US Flag 
02:05AM EDT


 

Airport Tracker/Info


-or-


 

Live Flight TrackerFlight Track Log ✈ AIP5038 ✈ 04-Sep-2013 ✈ KMSO - KBIL

Flight Track Log - Related Links

Times and Time Zones

All times are in EDT time to prevent confusion due to time zone crossing. See the AIP5038 flight status page for this flight to view local times or setup timezone preferences in your user account.

Time Position Orientation Groundspeed Altitude Reporting Facility
EDT Latitude Longitude Course Direction KTS MPH feet Rate Location/Type
03:21AM 46.9236 -114.1100 109° East 121 139 4,200  Level Salt Lake Center
03:22AM 46.9028 -114.1233 204° Southwest 119 137 6,000 1,680 Climbing Salt Lake Center
03:23AM 46.8956 -114.0742 102° East 118 136 7,700 1,560 Climbing Salt Lake Center
03:24AM 46.8814 -114.0286 114° Southeast 122 140 9,200 1,440 Climbing Salt Lake Center
03:25AM 46.8728 -113.9783 104° East 127 146 10,600 1,320 Climbing Salt Lake Center
03:26AM 46.8195 -113.5365 107° East  Level Estimated
03:26AM 46.8625 -113.9272 106° East 132 152 11,900  Level Salt Lake Center
03:27AM 46.7983 -113.4464 109° East  Level FlightAware Approximate
03:27AM 46.8556 -113.8700 100° East 142 163 13,000  Level Salt Lake Center
03:28AM 46.8419 -113.8122 109° East 156 180 14,200 1,080 Climbing Salt Lake Center
03:29AM 46.8344 -113.7519 100° East 153 176 15,200 960 Climbing Salt Lake Center
03:30AM 46.8236 -113.6869 104° East 154 177 16,200 840 Climbing Salt Lake Center
03:31AM 46.8144 -113.6242 102° East 159 183 16,900 360 Climbing Salt Lake Center
03:32AM 46.8031 -113.5497 103° East 186 214 17,000  Climbing Salt Lake Center
03:33AM 46.7900 -113.4692 103° East 204 235 16,900 -60 Descending Salt Lake Center
03:34AM 46.7764 -113.3883 104° East 207 238 16,900  Level Salt Lake Center
03:35AM 46.7561 -113.3117 111° Southeast 204 235 17,000  Climbing Salt Lake Center
03:36AM 46.7444 -113.2356 103° East 204 235 17,000  Level Salt Lake Center
03:37AM 46.7358 -113.1514 98° East 208 239 17,100  Climbing Salt Lake Center
03:38AM 46.7172 -113.0722 109° East 208 239 17,100  Level Salt Lake Center
03:39AM 46.6986 -112.9914 109° East 211 243 17,100 -60 Level Salt Lake Center
03:40AM 46.6961 -112.8972 92° East 214 246 17,000 -60 Descending Salt Lake Center
03:41AM 46.6742 -112.8197 112° Southeast 210 242 17,000  Level Salt Lake Center
03:42AM 46.6567 -112.7386 107° East 211 243 17,000  Level Salt Lake Center
03:43AM 46.6406 -112.6553 106° East 212 244 17,000  Level Salt Lake Center
03:44AM 46.6286 -112.5725 102° East 212 244 17,100  Climbing Salt Lake Center
03:46AM 46.6139 -112.4900 105° East 212 244 17,100  Level Salt Lake Center
03:47AM 46.6000 -112.4081 104° East 210 242 17,100 -60 Level Salt Lake Center
03:48AM 46.5914 -112.3225 98° East 213 245 17,000 -60 Descending Salt Lake Center
03:49AM 46.5661 -112.2453 115° Southeast 212 244 17,000  Level Salt Lake Center
03:50AM 46.5522 -112.1606 103° East 213 245 17,000  Level Salt Lake Center
03:51AM 46.5314 -112.0783 110° East 216 249 17,100  Climbing Salt Lake Center
03:52AM 46.5158 -111.9956 105° East 214 246 17,000  Descending Salt Lake Center
03:53AM 46.5036 -111.9131 102° East 211 243 17,100  Climbing Salt Lake Center
03:54AM 46.4878 -111.8331 106° East 210 242 17,100 -60 Level Salt Lake Center
03:55AM 46.4739 -111.7489 103° East 212 244 17,000 -60 Descending Salt Lake Center
03:56AM 46.4581 -111.6678 106° East 212 244 17,000  Level Salt Lake Center
03:57AM 46.4431 -111.5875 105° East 211 243 17,000  Level Salt Lake Center
03:58AM 46.4228 -111.5086 110° East 210 242 17,000  Level Salt Lake Center
03:59AM 46.4058 -111.4294 107° East 209 241 17,100  Climbing Salt Lake Center
04:00AM 46.3883 -111.3494 108° East 208 239 17,000 -60 Descending Salt Lake Center
04:01AM 46.3700 -111.2742 109° East 205 236 17,000 -60 Level Salt Lake Center
04:02AM 46.3547 -111.1917 105° East 209 241 16,900  Descending Salt Lake Center
04:03AM 46.3383 -111.1106 106° East 211 243 17,000 60 Climbing Salt Lake Center
04:04AM 46.3192 -111.0319 109° East 210 242 17,100  Climbing Salt Lake Center
04:05AM 46.3006 -110.9414 107° East 210 242 17,000  Descending Salt Lake Center
04:06AM 46.2822 -110.8608 108° East 211 243 17,100  Climbing Salt Lake Center
04:07AM 46.2667 -110.7786 105° East 213 245 17,100  Level Salt Lake Center
04:08AM 46.2492 -110.6969 107° East 214 246 17,100 -60 Level Salt Lake Center
04:09AM 46.2322 -110.6150 107° East 214 246 17,000 -60 Descending Salt Lake Center
04:10AM 46.2150 -110.5342 107° East 213 245 17,000  Level Salt Lake Center
04:11AM 46.2003 -110.4508 104° East 215 247 17,100  Climbing Salt Lake Center
04:12AM 46.1858 -110.3689 104° East 212 244 17,000  Descending Salt Lake Center
04:13AM 46.1744 -110.2831 101° East 218 251 17,100  Climbing Salt Lake Center
04:14AM 46.1564 -110.2036 108° East 213 245 17,100  Level Salt Lake Center
04:15AM 46.1397 -110.1244 107° East 208 239 17,100  Level Salt Lake Center
04:16AM 46.1200 -110.0506 111° Southeast 200 230 17,100 -60 Level Salt Lake Center
04:17AM 46.1019 -109.9708 108° East 207 238 17,000  Descending Salt Lake Center
04:18AM 46.0836 -109.8953 109° East 203 234 17,100  Climbing Salt Lake Center
04:19AM 46.0658 -109.8058 106° East 204 235 17,000 -180 Descending Salt Lake Center
04:20AM 46.0497 -109.7275 106° East 209 241 16,800 -360 Descending Salt Lake Center
04:21AM 46.0397 -109.6406 99° East 219 252 16,300 -600 Descending Salt Lake Center
04:22AM 46.0186 -109.5536 109° East 232 267 15,600 -780 Descending Salt Lake Center
04:23AM 45.9997 -109.4681 108° East 227 261 14,800 -1,200 Descending Salt Lake Center
04:24AM 45.9769 -109.3825 111° Southeast 231 266 13,200 -1,500 Descending Salt Lake Center
04:25AM 45.9528 -109.2844 109° East 241 277 11,800 -1,200 Descending Salt Lake Center
04:26AM 45.9328 -109.1942 108° East 240 276 10,800 -1,080 Descending Salt Lake Center
04:27AM 45.9153 -109.1047 106° East 237 273 9,700 -960 Descending Salt Lake Center
04:28AM 45.8956 -109.0167 108° East 235 270 8,900 -900 Descending Salt Lake Center
04:29AM 45.8783 -108.9297 106° East 231 266 8,000 -900 Descending Salt Lake Center
04:30AM 45.8597 -108.8425 107° East 231 266 7,200 -660 Descending Salt Lake Center
04:31AM 45.8400 -108.7586 109° East 226 260 6,700 -600 Descending Salt Lake Center
04:32AM 45.8169 -108.6697 110° East 225 259 6,100 -420 Descending Salt Lake Center
04:33AM 45.7897 -108.5944 117° Southeast 218 251 5,900 -360 Descending Salt Lake Center
04:34AM 45.7656 -108.5358 121° Southeast 181 208 5,400 -540 Descending Salt Lake Center
04:35AM 45.7797 -108.4889 67° East 142 163 4,900 -900 Descending Salt Lake Center
04:36AM 45.8011 -108.5136 321° Northwest 110 127 3,700 -1,200 Descending Salt Lake Center
04:38AM 45.7921 -108.5333 North  Level FlightAware Approximate